createdAt,value
2022-10-23T00:03:51.861Z,4172.9
2022-10-23T00:09:29.690Z,4173.8
2022-10-23T00:15:24.749Z,4171.4
2022-10-23T00:21:02.217Z,4171.9
2022-10-23T00:26:39.373Z,4172.1
2022-10-23T00:32:17.440Z,4171.4
2022-10-23T00:37:56.789Z,4172.1
2022-10-23T00:43:35.431Z,4171.6
2022-10-23T00:54:45.515Z,4170.6
2022-10-23T01:00:23.210Z,4170.1
2022-10-23T01:06:00.615Z,4172.6
2022-10-23T01:11:35.408Z,4171.3
2022-10-23T01:17:10.167Z,4171.8
2022-10-23T01:23:06.989Z,4168.1
2022-10-23T01:28:49.116Z,4168.2
2022-10-23T01:34:45.927Z,4167.2
2022-10-23T01:40:22.335Z,4166.6
2022-10-23T01:46:30.092Z,4169.6
2022-10-23T01:52:07.076Z,4171.4
2022-10-23T01:57:45.306Z,4171.4
2022-10-23T02:03:27.156Z,4166.9
2022-10-23T02:09:23.550Z,4169.1
2022-10-23T02:15:46.121Z,4165.6
2022-10-23T02:21:32.729Z,4166.9
2022-10-23T02:27:14.174Z,4168.2
2022-10-23T02:32:49.208Z,4165.9
2022-10-23T02:38:53.102Z,4165.1
2022-10-23T02:44:28.210Z,4164.1
2022-10-23T02:50:46.529Z,4166.7
2022-10-23T02:56:24.913Z,4163.5
2022-10-23T03:02:08.945Z,4165.9
2022-10-23T03:07:49.494Z,4162.9
2022-10-23T03:13:27.971Z,4166.9
2022-10-23T03:19:03.811Z,4165.7
2022-10-23T03:24:41.673Z,4164.7
2022-10-23T03:30:21.024Z,4165.4
2022-10-23T03:35:59.478Z,4163.2
2022-10-23T03:41:34.480Z,4162.5
2022-10-23T03:47:21.287Z,4162.5
2022-10-23T03:53:17.004Z,4164.9
2022-10-23T03:58:52.461Z,4164.4
2022-10-23T04:04:27.318Z,4161.4
2022-10-23T04:10:02.319Z,4163.4
2022-10-23T04:15:44.839Z,4163.7
2022-10-23T04:21:42.686Z,4165.4
2022-10-23T04:27:26.059Z,4160.9
2022-10-23T04:33:08.034Z,4163
2022-10-23T04:38:46.498Z,4156.5
2022-10-23T04:44:43.977Z,4161.2
2022-10-23T04:50:28.904Z,4157.2
2022-10-23T04:56:12.857Z,4160.2
2022-10-23T05:01:58.661Z,4158.9
2022-10-23T05:07:34.041Z,4161.5
2022-10-23T05:13:36.912Z,4157.9
2022-10-23T05:19:42.929Z,4158.5
2022-10-23T05:25:19.115Z,4160
2022-10-23T05:30:54.828Z,4159.2
2022-10-23T05:36:29.945Z,4155.3
2022-10-23T05:42:14.555Z,4156.5
2022-10-23T05:48:34.128Z,4155.8
2022-10-23T05:54:22.511Z,4157.5
2022-10-23T05:59:57.545Z,4155.2
2022-10-23T06:05:33.180Z,4155.7
2022-10-23T06:11:32.565Z,4153.3
2022-10-23T06:17:13.707Z,4152.5
2022-10-23T06:22:51.203Z,4153.7
2022-10-23T06:28:34.685Z,4152.2
2022-10-23T06:34:10.812Z,4154.8
2022-10-23T06:39:45.589Z,4151.7
2022-10-23T06:45:20.282Z,4152.8
2022-10-23T06:50:55.338Z,4152.7
2022-10-23T06:56:31.140Z,4152.3
2022-10-23T07:02:05.753Z,4155.3
2022-10-23T07:07:40.686Z,4153.5
2022-10-23T07:13:15.558Z,4155.2
2022-10-23T07:18:50.536Z,4162.7
2022-10-23T07:24:25.443Z,4162.2
2022-10-23T07:30:00.835Z,4175.1
2022-10-23T07:35:40.185Z,4171.6
2022-10-23T07:41:15.212Z,4193.7
2022-10-23T07:46:50.168Z,4191.7
2022-10-23T07:52:25.952Z,4207.4
2022-10-23T07:58:01.082Z,4200.2
2022-10-23T08:03:36.060Z,4213.1
2022-10-23T08:09:14.114Z,4207.8
2022-10-23T08:14:49.492Z,4189.7
2022-10-23T08:20:24.716Z,4188.7
2022-10-23T08:26:04.628Z,4211.3
2022-10-23T08:31:47.576Z,4190.2
2022-10-23T08:37:30.821Z,4190.3
2022-10-23T08:43:09.944Z,4200.9
2022-10-23T08:48:48.060Z,4195.4
2022-10-23T08:54:31.183Z,4194.7
2022-10-23T09:00:14.052Z,4205.6
2022-10-23T09:05:49.302Z,4204.8
2022-10-23T09:11:29.146Z,4203.4
2022-10-23T09:17:16.198Z,4209.4
2022-10-23T09:23:00.129Z,4210.1
2022-10-23T09:28:38.955Z,4221.8
2022-10-23T09:34:17.455Z,4226.4
2022-10-23T09:39:59.032Z,4211.6
2022-10-23T09:45:34.031Z,4209.4
2022-10-23T09:51:12.904Z,4213.6
2022-10-23T09:56:50.402Z,4213.5
2022-10-23T10:02:25.627Z,4209.4
2022-10-23T10:08:04.703Z,4223.2
2022-10-23T10:13:40.635Z,4220.7
2022-10-23T10:19:30.056Z,4211.6
2022-10-23T10:25:09.448Z,4218.3
2022-10-23T10:30:44.607Z,4217.3
2022-10-23T10:36:36.075Z,4217.1
2022-10-23T10:42:12.072Z,4218.5
2022-10-23T10:47:47.381Z,4223
2022-10-23T10:53:25.227Z,4215.3
2022-10-23T10:59:09.991Z,4216.6
2022-10-23T11:04:47.748Z,4215.5
2022-10-23T11:10:22.624Z,4216
2022-10-23T11:16:01.645Z,4224.5
2022-10-23T11:21:42.384Z,4220.2
2022-10-23T11:27:27.096Z,4229.9
2022-10-23T11:33:06.671Z,4219.7
2022-10-23T11:38:42.701Z,4228.5
2022-10-23T11:44:18.529Z,4224
2022-10-23T11:49:53.527Z,4216.3
2022-10-23T11:55:34.251Z,4219.2
2022-10-23T12:02:08.737Z,4198.7
2022-10-23T12:08:59.760Z,4199.2
2022-10-23T12:14:47.732Z,4198.9
2022-10-23T12:20:22.631Z,4198.7
2022-10-23T12:26:03.381Z,4194
2022-10-23T12:32:01.539Z,4197.4
2022-10-23T12:37:36.635Z,4195
2022-10-23T12:43:33.347Z,4195.9
2022-10-23T12:49:08.010Z,4194.9
2022-10-23T12:54:51.798Z,4195.2
2022-10-23T13:00:45.975Z,4194.2
2022-10-23T13:06:43.136Z,4201.2
2022-10-23T13:12:27.348Z,4197.2
2022-10-23T13:18:06.656Z,4195.5
2022-10-23T13:23:41.483Z,4194.7
2022-10-23T13:35:23.072Z,4195.7
2022-10-23T13:41:19.961Z,4193
2022-10-23T13:46:52.735Z,4194.2
2022-10-23T13:52:31.418Z,4195.7
2022-10-23T13:58:07.639Z,4193.5
2022-10-23T14:04:05.789Z,4197.4
2022-10-23T14:09:51.349Z,4192
2022-10-23T14:15:28.305Z,4197
2022-10-23T14:21:11.712Z,4196.4
2022-10-23T14:26:49.136Z,4199.4
2022-10-23T14:32:38.443Z,4198.9
2022-10-23T14:38:39.484Z,4196
2022-10-23T14:44:23.470Z,4195.4
2022-10-23T14:50:00.722Z,4196.4
2022-10-23T14:55:36.149Z,4191.5
2022-10-23T15:01:14.300Z,4194.5
2022-10-23T15:06:49.774Z,4193
2022-10-23T15:12:24.824Z,4192.9
2022-10-23T15:17:59.591Z,4193.9
2022-10-23T15:23:37.199Z,4191
2022-10-23T15:29:12.298Z,4190.7
2022-10-23T15:35:25.030Z,4189.3
2022-10-23T15:41:09.117Z,4191.9
2022-10-23T15:46:47.889Z,4191.2
2022-10-23T15:52:29.831Z,4195.4
2022-10-23T15:58:16.309Z,4190.3
